createdAt,value
2018-03-04T00:02:06.275Z,-3.30
2018-03-04T00:04:33.832Z,-3.27
2018-03-04T00:07:01.307Z,-3.27
2018-03-04T00:09:28.849Z,-3.20
2018-03-04T00:11:56.430Z,-3.13
2018-03-04T00:14:23.955Z,-3.12
2018-03-04T00:16:51.468Z,-3.16
2018-03-04T00:19:18.931Z,-3.11
2018-03-04T00:21:46.426Z,-3.06
2018-03-04T00:24:13.934Z,-3.24
2018-03-04T00:26:41.447Z,-3.29
2018-03-04T00:29:09.163Z,-3.30
2018-03-04T00:31:36.718Z,-3.36
2018-03-04T00:34:04.195Z,-3.32
2018-03-04T00:36:31.678Z,-3.34
2018-03-04T00:38:59.198Z,-3.41
2018-03-04T00:41:26.679Z,-3.57
2018-03-04T00:43:55.372Z,-3.64
2018-03-04T00:46:22.943Z,-3.72
2018-03-04T00:48:50.426Z,-3.82
2018-03-04T00:51:17.944Z,-3.80
2018-03-04T00:53:45.462Z,-3.90
2018-03-04T00:56:12.962Z,-3.94
2018-03-04T00:58:40.801Z,-4.08
2018-03-04T01:01:08.350Z,-4.23
2018-03-04T01:03:35.825Z,-4.27
2018-03-04T01:06:07.374Z,-4.30
2018-03-04T01:08:35.159Z,-4.35
2018-03-04T01:11:02.724Z,-4.34
2018-03-04T01:13:30.244Z,-4.34
2018-03-04T01:15:57.741Z,-4.35
2018-03-04T01:18:25.981Z,-4.25
2018-03-04T01:20:53.454Z,-4.26
2018-03-04T01:23:20.976Z,-4.43
2018-03-04T01:25:48.499Z,-4.44
2018-03-04T01:28:16.858Z,-4.45
2018-03-04T01:30:44.455Z,-4.29
2018-03-04T01:35:38.744Z,-4.43
2018-03-04T01:38:06.253Z,-4.15
2018-03-04T01:40:33.833Z,-4.32
2018-03-04T01:43:01.440Z,-4.33
2018-03-04T01:45:28.967Z,-4.23
2018-03-04T01:47:56.503Z,-4.29
2018-03-04T01:50:24.019Z,-4.36
2018-03-04T01:52:51.508Z,-4.23
2018-03-04T01:55:19.095Z,-4.06
2018-03-04T01:57:46.578Z,-4.15
2018-03-04T02:00:14.119Z,-4.16
2018-03-04T02:02:41.588Z,-4.24
2018-03-04T02:05:09.105Z,-4.27
2018-03-04T02:07:36.568Z,-4.26
2018-03-04T02:10:04.128Z,-4.12
2018-03-04T02:12:31.617Z,-4.20
2018-03-04T02:14:59.160Z,-4.29
2018-03-04T02:17:26.651Z,-4.35
2018-03-04T02:19:54.138Z,-4.17
2018-03-04T02:22:21.617Z,-4.22
2018-03-04T02:24:49.411Z,-4.41
2018-03-04T02:27:16.936Z,-4.44
2018-03-04T02:29:44.425Z,-4.52
2018-03-04T02:32:12.342Z,-4.30
2018-03-04T02:34:39.832Z,-4.42
2018-03-04T02:37:07.394Z,-4.40
2018-03-04T02:39:34.958Z,-4.58
2018-03-04T02:42:02.447Z,-4.54
2018-03-04T02:44:30.735Z,-4.71
2018-03-04T02:46:58.205Z,-4.78
2018-03-04T02:49:25.703Z,-4.94
2018-03-04T02:51:53.206Z,-5.02
2018-03-04T02:54:20.675Z,-5.11
2018-03-04T02:56:48.963Z,-5.12
2018-03-04T02:59:16.455Z,-5.11
2018-03-04T03:01:43.926Z,-5.17
2018-03-04T03:04:11.449Z,-5.14
2018-03-04T03:06:38.941Z,-5.29
2018-03-04T03:09:06.402Z,-5.28
2018-03-04T03:11:33.871Z,-5.18
2018-03-04T03:14:01.349Z,-5.28
2018-03-04T03:16:29.606Z,-5.27
2018-03-04T03:18:57.076Z,-5.19
2018-03-04T03:21:24.525Z,-5.31
2018-03-04T03:23:51.994Z,-5.32
2018-03-04T03:26:19.490Z,-5.45
2018-03-04T03:28:46.952Z,-5.47
2018-03-04T03:31:14.445Z,-5.52
2018-03-04T03:33:41.927Z,-5.37
2018-03-04T03:36:09.410Z,-5.30
2018-03-04T03:38:37.058Z,-5.36
2018-03-04T03:41:04.506Z,-5.39
2018-03-04T03:43:31.967Z,-5.34
2018-03-04T03:45:59.495Z,-5.34
2018-03-04T03:48:27.408Z,-5.32
2018-03-04T03:50:54.895Z,-5.33
2018-03-04T03:53:22.376Z,-5.34
2018-03-04T03:55:49.840Z,-5.35
2018-03-04T03:58:17.299Z,-5.32
2018-03-04T04:00:44.843Z,-5.32
2018-03-04T04:03:12.616Z,-5.35
2018-03-04T04:05:40.208Z,-5.30
2018-03-04T04:08:07.682Z,-5.22
2018-03-04T04:10:35.136Z,-5.12
2018-03-04T04:13:02.806Z,-5.14
2018-03-04T04:15:30.268Z,-5.14
2018-03-04T04:17:57.739Z,-5.12
2018-03-04T04:20:25.222Z,-5.26
2018-03-04T04:22:52.712Z,-5.36
2018-03-04T04:25:20.176Z,-5.24
2018-03-04T04:27:47.654Z,-5.28
2018-03-04T04:30:15.122Z,-5.27
2018-03-04T04:32:42.684Z,-5.28
2018-03-04T04:35:10.228Z,-5.28
2018-03-04T04:37:37.756Z,-5.22
2018-03-04T04:40:05.234Z,-5.27
2018-03-04T04:42:32.711Z,-5.16
2018-03-04T04:45:00.179Z,-5.11
2018-03-04T04:47:27.660Z,-5.15
2018-03-04T04:49:55.136Z,-5.25
2018-03-04T04:52:22.616Z,-5.06
2018-03-04T04:54:50.089Z,-5.17
2018-03-04T04:57:17.677Z,-5.20
2018-03-04T04:59:45.154Z,-5.24
2018-03-04T05:02:12.627Z,-5.27
2018-03-04T05:04:40.096Z,-5.27
2018-03-04T05:07:07.646Z,-5.33
2018-03-04T05:09:35.123Z,-5.39
2018-03-04T05:12:02.640Z,-5.32
2018-03-04T05:14:30.350Z,-5.16
2018-03-04T05:16:57.839Z,-5.18
2018-03-04T05:19:25.357Z,-5.15
2018-03-04T05:21:52.823Z,-5.26
2018-03-04T05:24:20.292Z,-5.22
2018-03-04T05:26:47.744Z,-5.25
2018-03-04T05:29:16.091Z,-5.19
2018-03-04T05:31:43.556Z,-5.29
2018-03-04T05:34:11.079Z,-5.25
2018-03-04T05:36:38.693Z,-5.31
2018-03-04T05:39:06.370Z,-5.34
2018-03-04T05:41:33.851Z,-5.32
2018-03-04T05:44:01.315Z,-5.36
2018-03-04T05:46:29.663Z,-5.34
2018-03-04T05:48:57.123Z,-5.30
2018-03-04T05:51:24.608Z,-5.30
2018-03-04T05:53:52.114Z,-5.37
2018-03-04T05:56:19.616Z,-5.41
2018-03-04T05:58:47.108Z,-5.49
2018-03-04T06:01:14.564Z,-5.55
2018-03-04T06:03:42.087Z,-5.60
2018-03-04T06:06:09.543Z,-5.59
2018-03-04T06:08:37.207Z,-5.62
2018-03-04T06:11:04.743Z,-5.65
2018-03-04T06:13:32.202Z,-5.70
2018-03-04T06:15:59.675Z,-5.72
2018-03-04T06:18:27.212Z,-5.73
2018-03-04T06:20:54.696Z,-5.70
2018-03-04T06:23:22.400Z,-5.58
2018-03-04T06:25:49.960Z,-5.58
2018-03-04T06:28:17.453Z,-5.60
2018-03-04T06:30:44.968Z,-5.47
2018-03-04T06:33:12.445Z,-5.46
2018-03-04T06:35:39.938Z,-5.29
2018-03-04T06:38:07.419Z,-5.27
2018-03-04T06:40:35.961Z,-5.24
2018-03-04T06:43:03.425Z,-5.16
2018-03-04T06:45:30.895Z,-4.94
2018-03-04T06:47:58.448Z,-4.73
2018-03-04T06:50:25.914Z,-4.47
2018-03-04T06:52:53.387Z,-4.46
2018-03-04T06:55:20.865Z,-4.28
2018-03-04T06:57:48.331Z,-4.23
2018-03-04T07:00:15.814Z,-4.17
2018-03-04T07:02:43.299Z,-4.02
2018-03-04T07:05:10.794Z,-3.78
2018-03-04T07:07:38.248Z,-3.60
2018-03-04T07:10:05.714Z,-3.50
2018-03-04T07:12:33.167Z,-3.50
2018-03-04T07:15:00.635Z,-3.41
2018-03-04T07:17:28.162Z,-3.35
2018-03-04T07:19:55.621Z,-3.27
2018-03-04T07:22:23.132Z,-3.23
2018-03-04T07:24:50.607Z,-3.26
2018-03-04T07:27:18.216Z,-3.20
2018-03-04T07:29:45.710Z,-3.08
2018-03-04T07:32:13.323Z,-2.81
2018-03-04T07:34:40.820Z,-2.75
2018-03-04T07:37:08.358Z,-2.62
2018-03-04T07:39:35.852Z,-2.40
2018-03-04T07:42:03.310Z,-2.15
2018-03-04T07:44:31.940Z,-2.05
2018-03-04T07:46:59.501Z,-2.01
2018-03-04T07:49:27.015Z,-1.85
2018-03-04T07:51:54.858Z,-1.70
2018-03-04T07:54:22.526Z,-1.68
2018-03-04T07:56:50.471Z,-1.93
2018-03-04T07:59:17.927Z,-1.87
2018-03-04T08:01:45.430Z,-1.73
2018-03-04T08:04:12.942Z,-1.65
2018-03-04T08:06:40.445Z,-1.60
2018-03-04T08:09:07.953Z,-1.49
2018-03-04T08:11:35.413Z,-1.37
2018-03-04T08:14:02.979Z,-1.28
2018-03-04T08:16:30.596Z,-1.15
2018-03-04T08:18:58.051Z,-1.04
2018-03-04T08:21:25.538Z,-1.15
2018-03-04T08:23:53.016Z,-1.43
2018-03-04T08:26:32.403Z,-1.62
2018-03-04T08:28:59.887Z,-1.72
2018-03-04T08:31:27.350Z,-1.67
2018-03-04T08:33:54.866Z,-1.61
2018-03-04T08:36:22.331Z,-1.52
2018-03-04T08:38:49.792Z,-1.33
2018-03-04T08:41:17.348Z,-1.47
2018-03-04T08:43:44.830Z,-1.41
2018-03-04T08:46:12.294Z,-1.23
2018-03-04T08:48:39.860Z,-1.06
2018-03-04T08:51:07.423Z,-0.99
2018-03-04T08:53:34.887Z,-0.91
2018-03-04T08:56:02.684Z,-0.67
2018-03-04T08:58:30.148Z,-0.59
2018-03-04T09:00:57.599Z,-0.40
2018-03-04T09:03:25.176Z,-0.22
2018-03-04T09:05:52.650Z,-0.14
2018-03-04T09:08:20.143Z,0.00
2018-03-04T09:10:47.620Z,0.35
2018-03-04T09:13:15.127Z,0.71
2018-03-04T09:15:42.615Z,0.73
2018-03-04T09:18:10.252Z,0.87
2018-03-04T09:20:37.761Z,1.26
2018-03-04T09:23:05.250Z,1.61
2018-03-04T09:25:32.765Z,1.73
2018-03-04T09:28:00.208Z,1.75
2018-03-04T09:30:27.772Z,1.73
2018-03-04T09:32:55.345Z,2.04
2018-03-04T09:35:22.855Z,2.02
2018-03-04T09:37:50.373Z,2.06
2018-03-04T09:40:17.880Z,2.26
2018-03-04T09:42:45.707Z,2.27
2018-03-04T09:45:13.488Z,2.40
2018-03-04T09:47:40.978Z,2.38
2018-03-04T09:50:08.466Z,2.49
2018-03-04T09:52:35.932Z,2.51
2018-03-04T09:55:03.412Z,2.71
2018-03-04T09:57:30.914Z,2.91
2018-03-04T09:59:58.470Z,2.78
2018-03-04T10:02:26.030Z,2.91
2018-03-04T10:04:53.503Z,3.00
2018-03-04T10:07:21.458Z,3.06
2018-03-04T10:09:48.938Z,3.27
2018-03-04T10:12:16.416Z,3.42
2018-03-04T10:14:44.444Z,3.34
2018-03-04T10:17:11.904Z,3.41
2018-03-04T10:19:39.381Z,3.50
2018-03-04T10:22:06.914Z,3.36
2018-03-04T10:24:34.467Z,3.26
2018-03-04T10:27:01.968Z,3.36
2018-03-04T10:29:29.478Z,3.47
2018-03-04T10:31:56.980Z,3.38
2018-03-04T10:34:24.457Z,3.66
2018-03-04T10:36:51.969Z,3.74
2018-03-04T10:39:19.501Z,3.66
2018-03-04T10:41:47.019Z,3.59
2018-03-04T10:44:15.311Z,3.75
2018-03-04T10:46:42.853Z,3.88
2018-03-04T10:49:10.320Z,3.82
2018-03-04T10:51:37.776Z,3.77
2018-03-04T10:54:05.750Z,3.62
2018-03-04T10:56:33.917Z,3.77
2018-03-04T10:59:01.472Z,3.74
2018-03-04T11:01:29.675Z,3.70
2018-03-04T11:03:57.168Z,3.56
2018-03-04T11:06:25.337Z,3.45
2018-03-04T11:08:52.860Z,3.23
2018-03-04T11:11:20.412Z,2.99
2018-03-04T11:13:47.915Z,3.05
2018-03-04T11:16:15.551Z,3.24
2018-03-04T11:18:43.042Z,3.29
2018-03-04T11:21:10.536Z,3.48
2018-03-04T11:23:38.283Z,3.70
2018-03-04T11:26:06.779Z,3.55
2018-03-04T11:28:34.755Z,3.79
2018-03-04T11:31:02.318Z,3.87
2018-03-04T11:33:29.830Z,3.80
2018-03-04T11:35:57.323Z,4.01
2018-03-04T11:38:26.244Z,3.84
2018-03-04T11:40:54.638Z,3.79
2018-03-04T11:43:24.481Z,3.85
2018-03-04T11:45:52.407Z,3.78
2018-03-04T11:48:19.916Z,3.91
2018-03-04T11:50:47.412Z,3.80
2018-03-04T11:53:14.984Z,3.84
2018-03-04T11:55:42.470Z,3.90
2018-03-04T11:58:10.896Z,4.06
2018-03-04T12:00:38.398Z,4.17
2018-03-04T12:03:07.236Z,4.42
2018-03-04T12:05:34.929Z,4.58
2018-03-04T12:08:02.436Z,4.79
2018-03-04T12:10:30.302Z,4.77
2018-03-04T12:12:57.792Z,5.05
2018-03-04T12:15:25.279Z,5.19
2018-03-04T12:17:52.764Z,5.12
2018-03-04T12:20:20.310Z,5.29
2018-03-04T12:22:47.816Z,5.28
2018-03-04T12:25:15.459Z,5.39
2018-03-04T12:27:43.697Z,5.09
2018-03-04T12:30:12.792Z,5.18
2018-03-04T12:32:40.440Z,5.33
2018-03-04T12:35:08.137Z,5.52
2018-03-04T12:40:12.069Z,5.59
2018-03-04T12:42:39.594Z,5.98
2018-03-04T12:45:07.119Z,6.12
2018-03-04T12:47:35.424Z,6.19
2018-03-04T12:50:02.919Z,6.32
2018-03-04T12:52:30.690Z,6.62
2018-03-04T12:54:58.771Z,6.35
2018-03-04T12:57:26.347Z,6.46
2018-03-04T12:59:53.780Z,6.56
2018-03-04T13:02:21.354Z,6.78
2018-03-04T13:04:48.854Z,6.92
2018-03-04T13:07:16.378Z,6.72
2018-03-04T13:12:16.409Z,6.68
2018-03-04T13:14:44.899Z,6.20
2018-03-04T13:27:14.335Z,5.70
2018-03-04T13:29:43.979Z,5.60
2018-03-04T13:32:12.641Z,5.66
2018-03-04T13:34:41.902Z,5.81
2018-03-04T13:37:10.949Z,5.88
2018-03-04T13:39:40.238Z,5.82
2018-03-04T13:42:09.152Z,5.63
2018-03-04T13:57:28.147Z,5.87
2018-03-04T13:59:56.267Z,5.89
2018-03-04T14:02:23.977Z,5.91
2018-03-04T14:04:51.682Z,5.89
2018-03-04T14:07:19.356Z,5.89
2018-03-04T14:09:46.994Z,6.00
2018-03-04T14:12:14.720Z,6.08
2018-03-04T14:14:42.637Z,6.03
2018-03-04T14:17:10.844Z,6.40
2018-03-04T14:22:34.312Z,7.17
2018-03-04T14:27:39.054Z,8.01
2018-03-04T14:30:06.670Z,8.14
2018-03-04T14:32:34.254Z,8.59
2018-03-04T14:35:01.760Z,8.63
2018-03-04T14:37:29.270Z,8.73
2018-03-04T14:39:56.884Z,8.77
2018-03-04T14:42:24.928Z,8.90
2018-03-04T14:44:54.537Z,9.08
2018-03-04T14:47:22.640Z,9.31
2018-03-04T14:49:52.866Z,9.15
2018-03-04T14:52:21.475Z,9.29
2018-03-04T14:54:51.722Z,8.89
2018-03-04T14:57:19.932Z,9.09
2018-03-04T14:59:51.360Z,8.88
2018-03-04T15:02:19.736Z,8.49
2018-03-04T15:12:33.109Z,8.53
2018-03-04T15:15:01.914Z,8.45
2018-03-04T15:17:29.608Z,8.36
2018-03-04T15:19:58.270Z,8.32
2018-03-04T15:22:26.027Z,8.54
2018-03-04T15:24:53.733Z,8.36
2018-03-04T15:27:21.312Z,8.50
2018-03-04T15:29:49.093Z,7.90
2018-03-04T15:32:17.026Z,7.76
2018-03-04T15:34:46.426Z,7.61
2018-03-04T15:37:16.243Z,7.48
2018-03-04T15:42:17.304Z,7.24
2018-03-04T15:44:45.050Z,7.27
2018-03-04T15:49:58.490Z,6.60
2018-03-04T15:52:32.728Z,6.29
2018-03-04T15:55:00.975Z,6.01
2018-03-04T16:16:06.013Z,3.33
2018-03-04T16:18:45.086Z,3.01
2018-03-04T16:21:12.876Z,2.89
2018-03-04T16:23:40.909Z,2.49
2018-03-04T16:26:09.183Z,2.22
2018-03-04T16:28:37.033Z,2.08
2018-03-04T16:31:04.875Z,1.87
2018-03-04T16:33:33.481Z,1.67
2018-03-04T16:36:01.094Z,1.55
2018-03-04T16:38:29.977Z,1.38
2018-03-04T16:40:57.804Z,1.20
2018-03-04T16:43:25.359Z,1.04
2018-03-04T16:45:52.916Z,0.94
2018-03-04T16:48:20.564Z,0.81
2018-03-04T16:50:48.195Z,0.67
2018-03-04T16:53:15.744Z,0.59
2018-03-04T16:55:43.852Z,0.55
2018-03-04T16:58:11.374Z,0.46
2018-03-04T17:00:38.969Z,0.38
2018-03-04T17:03:07.047Z,0.35
2018-03-04T17:05:34.640Z,0.20
2018-03-04T17:08:02.160Z,0.20
2018-03-04T17:10:30.232Z,0.10
2018-03-04T17:12:57.767Z,0.06
2018-03-04T17:15:25.348Z,0.05
2018-03-04T17:17:52.983Z,0.01
2018-03-04T17:20:20.622Z,-0.02
2018-03-04T17:22:48.235Z,-0.06
2018-03-04T17:25:15.844Z,-0.12
2018-03-04T17:27:43.482Z,-0.16
2018-03-04T17:30:11.100Z,-0.18
2018-03-04T17:32:38.832Z,-0.12
2018-03-04T17:35:07.326Z,-0.17
2018-03-04T17:40:46.647Z,-0.26
2018-03-04T18:00:32.201Z,-0.44
2018-03-04T18:11:57.427Z,-0.64
2018-03-04T18:14:25.206Z,-0.69
2018-03-04T18:19:26.216Z,-0.54
2018-03-04T18:21:54.129Z,-0.54
2018-03-04T18:24:23.240Z,-0.57
2018-03-04T18:26:50.998Z,-0.59
2018-03-04T18:29:22.195Z,-0.56
2018-03-04T18:31:54.728Z,-0.52
2018-03-04T18:34:23.573Z,-0.53
2018-03-04T18:39:24.531Z,-0.47
2018-03-04T18:41:52.637Z,-0.53
2018-03-04T18:44:20.468Z,-0.59
2018-03-04T18:59:58.833Z,-0.61
2018-03-04T19:02:26.441Z,-0.59
2018-03-04T19:07:34.308Z,-0.69
2018-03-04T19:10:40.418Z,-0.50
2018-03-04T19:13:18.463Z,-0.41
2018-03-04T19:18:21.739Z,-0.46
2018-03-04T19:20:49.399Z,-0.45
2018-03-04T19:23:21.941Z,-0.39
2018-03-04T19:25:49.734Z,-0.42
2018-03-04T19:28:17.726Z,-0.50
2018-03-04T19:30:47.194Z,-0.55
2018-03-04T19:33:15.004Z,-0.57
2018-03-04T19:35:43.228Z,-0.68
2018-03-04T19:38:11.042Z,-0.77
2018-03-04T19:40:38.668Z,-0.81
2018-03-04T19:43:06.348Z,-0.79
2018-03-04T19:45:34.078Z,-0.88
2018-03-04T19:48:01.901Z,-0.91
2018-03-04T19:50:30.823Z,-0.89
2018-03-04T19:52:58.825Z,-0.89
2018-03-04T19:55:26.388Z,-0.89
2018-03-04T19:57:55.727Z,-0.90
2018-03-04T20:00:23.610Z,-0.92
2018-03-04T20:02:51.267Z,-0.98
2018-03-04T20:05:23.674Z,-0.99
2018-03-04T20:07:52.656Z,-0.95
2018-03-04T20:12:55.807Z,-1.06
2018-03-04T20:15:23.725Z,-1.01
2018-03-04T20:17:51.807Z,-1.05
2018-03-04T20:20:19.686Z,-0.99
2018-03-04T20:22:47.340Z,-0.90
2018-03-04T20:25:16.201Z,-1.04
2018-03-04T20:27:44.428Z,-1.11
2018-03-04T20:30:15.076Z,-1.09
2018-03-04T20:32:45.565Z,-0.96
2018-03-04T20:41:05.481Z,-0.88
2018-03-04T20:49:35.157Z,-0.92
2018-03-04T21:04:04.440Z,-0.51
2018-03-04T21:12:42.027Z,-0.86
2018-03-04T21:15:11.082Z,-0.83
2018-03-04T21:17:47.386Z,-0.86
2018-03-04T22:14:08.402Z,-0.22
2018-03-04T22:19:39.208Z,-0.25
2018-03-04T22:24:57.717Z,-0.09
2018-03-04T22:27:25.223Z,-0.11
2018-03-04T22:29:52.974Z,-0.01
2018-03-04T22:32:20.515Z,-0.04
2018-03-04T22:34:48.009Z,0.02
2018-03-04T22:37:15.540Z,0.07
2018-03-04T22:39:43.019Z,0.02
2018-03-04T22:42:10.611Z,0.11
2018-03-04T22:44:38.155Z,0.09
2018-03-04T22:47:05.609Z,0.16
2018-03-04T22:49:34.154Z,0.19
2018-03-04T22:52:01.636Z,0.16
2018-03-04T22:54:29.115Z,0.34
2018-03-04T22:56:56.579Z,0.31
2018-03-04T22:59:24.087Z,0.33
2018-03-04T23:01:52.295Z,0.35
2018-03-04T23:04:19.823Z,0.41
2018-03-04T23:06:48.427Z,0.44
2018-03-04T23:09:16.218Z,0.47
2018-03-04T23:11:43.713Z,0.45
2018-03-04T23:14:11.290Z,0.49
2018-03-04T23:16:39.059Z,0.44
2018-03-04T23:19:08.057Z,0.56
2018-03-04T23:21:35.876Z,0.58
2018-03-04T23:24:03.370Z,0.60
2018-03-04T23:26:34.544Z,0.67
2018-03-04T23:29:02.012Z,0.60
2018-03-04T23:31:30.932Z,0.62
2018-03-04T23:33:58.495Z,0.61
2018-03-04T23:36:28.497Z,0.65
2018-03-04T23:38:57.157Z,0.64
2018-03-04T23:41:24.889Z,0.70
2018-03-04T23:43:52.494Z,0.78
2018-03-04T23:46:19.963Z,0.72
2018-03-04T23:48:48.035Z,0.80
2018-03-04T23:51:16.317Z,0.70
2018-03-04T23:53:43.781Z,0.81
2018-03-04T23:56:11.792Z,0.89
2018-03-04T23:58:39.360Z,0.79
